KCLS/CLS METAR and TAF weather

Enter ICAO airport designator
Station Type Date Time Source
KCLS METAR 2020/02/21 00:15 UTC NOAA

KCLS 210015Z AUTO 14005KT 10SM CLR 15/M00 A3020 RMK AO2


Station Type Date Time Source
KCLS Decoded METAR 2020/02/21 00:15 UTC NOAA

Station name not available
Feb 20, 2020 - 07:15 PM EST / 2020.02.21 0015 UTC
Wind: from the SE (140 degrees) at 6 MPH (5 KT):0
Visibility: 10 mile(s):0
Sky conditions: clear
Temperature: 59 F (15 C)
Dew Point: 32 F (0 C)
Relative Humidity: 35%
Pressure (altimeter): 30.2 in. Hg (1022 hPa)
ob: KCLS 210015Z AUTO 14005KT 10SM CLR 15/M00 A3020 RMK AO2
cycle: 0

Station Type Date Time Source
KCLS TAF UTC NOAA

Error!

Example: see airport list